createdAt,value
2022-08-05T00:00:00.311Z,64.33
2022-08-05T00:01:00.969Z,64.83
2022-08-05T00:02:07.646Z,64.33
2022-08-05T00:03:00.297Z,64.13
2022-08-05T00:03:59.307Z,63.63
2022-08-05T00:04:59.275Z,63.73
2022-08-05T00:06:04.801Z,64.43
2022-08-05T00:07:00.268Z,64.43
2022-08-05T00:08:01.550Z,63.73
2022-08-05T00:08:59.244Z,63.33
2022-08-05T00:09:59.257Z,64.13
2022-08-05T00:11:00.668Z,64.43
2022-08-05T00:11:59.889Z,64.03
2022-08-05T00:12:59.174Z,64.03
2022-08-05T00:13:59.173Z,64.73
2022-08-05T00:14:59.173Z,64.53
2022-08-05T00:16:00.561Z,63.53
2022-08-05T00:17:01.857Z,62.83
2022-08-05T00:17:59.123Z,61.87
2022-08-05T00:18:59.132Z,61.96
2022-08-05T00:20:02.561Z,61.76
2022-08-05T00:20:59.115Z,62.13
2022-08-05T00:21:59.111Z,61.83
2022-08-05T00:23:02.601Z,61.13
2022-08-05T00:24:09.897Z,61.33
2022-08-05T00:25:00.052Z,60.83
2022-08-05T00:25:59.022Z,61.04
2022-08-05T00:26:59.021Z,60.83
2022-08-05T00:27:59.031Z,60.24
2022-08-05T00:28:59.053Z,60.33
2022-08-05T00:29:58.998Z,60.14
2022-08-05T00:31:02.750Z,60.14
2022-08-05T00:32:12.124Z,60.24
2022-08-05T00:32:59.958Z,60.31
2022-08-05T00:34:53.629Z,61.00
2022-08-05T00:35:06.095Z,60.71
2022-08-05T00:36:16.531Z,60.91
2022-08-05T00:37:13.159Z,61.60
2022-08-05T00:37:59.868Z,61.38
2022-08-05T00:38:59.467Z,62.18
2022-08-05T00:39:59.320Z,62.18
2022-08-05T00:40:58.895Z,61.87
2022-08-05T00:41:58.807Z,61.85
2022-08-05T00:42:58.850Z,61.94
2022-08-05T00:43:58.797Z,61.55
2022-08-05T00:44:58.787Z,61.74
2022-08-05T00:45:58.788Z,61.61
2022-08-05T00:47:03.965Z,61.22
2022-08-05T00:48:05.374Z,61.41
2022-08-05T00:48:59.744Z,61.39
2022-08-05T00:49:58.766Z,61.88
2022-08-05T00:50:58.754Z,61.46
2022-08-05T00:51:58.750Z,61.85
2022-08-05T00:52:58.745Z,61.85
2022-08-05T00:54:02.212Z,61.66
2022-08-05T00:54:58.690Z,62.05
2022-08-05T00:55:58.706Z,61.63
2022-08-05T00:56:58.626Z,61.72
2022-08-05T00:57:59.376Z,61.83
2022-08-05T00:58:58.585Z,61.53
2022-08-05T00:59:58.611Z,61.63
2022-08-05T01:00:58.677Z,61.63
2022-08-05T01:01:58.625Z,62.02
2022-08-05T01:02:59.698Z,61.93
2022-08-05T01:03:58.551Z,62.13
2022-08-05T01:04:58.542Z,62.13
2022-08-05T01:05:58.547Z,62.23
2022-08-05T01:06:58.492Z,62.42
2022-08-05T01:08:40.760Z,62.32
2022-08-05T01:08:59.461Z,62.52
2022-08-05T01:09:58.480Z,62.52
2022-08-05T01:10:58.461Z,62.42
2022-08-05T01:12:01.928Z,62.82
2022-08-05T01:13:05.208Z,62.92
2022-08-05T01:13:59.955Z,62.82
2022-08-05T01:14:58.399Z,62.92
2022-08-05T01:15:59.431Z,62.72
2022-08-05T01:16:58.357Z,62.82
2022-08-05T01:17:58.362Z,62.79
2022-08-05T01:18:58.334Z,62.79
2022-08-05T01:20:02.666Z,63.19
2022-08-05T01:20:58.320Z,63.09
2022-08-05T01:21:58.349Z,63.19
2022-08-05T01:22:58.288Z,63.09
2022-08-05T01:23:58.375Z,63.39
2022-08-05T01:24:58.270Z,63.39
2022-08-05T01:25:58.249Z,63.39
2022-08-05T01:26:58.260Z,63.36
2022-08-05T01:27:58.255Z,63.36
2022-08-05T01:28:58.199Z,63.46
2022-08-05T01:29:59.219Z,63.56
2022-08-05T01:30:58.217Z,63.36
2022-08-05T01:31:58.225Z,63.46
2022-08-05T01:32:58.174Z,63.76
2022-08-05T01:33:58.221Z,63.66
2022-08-05T01:34:58.235Z,63.85
2022-08-05T01:35:58.119Z,63.76
2022-08-05T01:39:08.471Z,63.73
2022-08-05T01:40:07.826Z,63.73
2022-08-05T01:41:10.508Z,63.73
2022-08-05T01:42:09.605Z,63.73
2022-08-05T01:43:07.759Z,63.82
2022-08-05T01:44:09.886Z,63.73
2022-08-05T01:45:08.215Z,63.82
2022-08-05T01:46:16.300Z,63.92
2022-08-05T01:47:09.657Z,63.82
2022-08-05T01:48:10.265Z,63.63
2022-08-05T01:49:23.118Z,63.63
2022-08-05T01:50:08.673Z,63.53
2022-08-05T01:51:12.265Z,63.82
2022-08-05T01:52:17.551Z,63.53
2022-08-05T01:53:08.608Z,63.63
2022-08-05T01:54:07.626Z,63.63
2022-08-05T01:55:07.631Z,63.63
2022-08-05T01:56:08.904Z,63.53
2022-08-05T01:58:11.958Z,63.73
2022-08-05T01:58:15.388Z,63.92
2022-08-05T01:59:08.543Z,63.82
2022-08-05T02:00:08.199Z,63.63
2022-08-05T02:01:07.528Z,63.73
2022-08-05T02:02:10.843Z,63.63
2022-08-05T02:03:07.485Z,64.03
2022-08-05T02:04:08.474Z,63.63
2022-08-05T02:05:11.689Z,63.82
2022-08-05T02:06:37.008Z,64.12
2022-08-05T02:07:08.486Z,64.36
2022-08-05T02:08:07.447Z,63.95
2022-08-05T02:09:07.455Z,63.95
2022-08-05T02:10:07.995Z,63.95
2022-08-05T02:11:07.412Z,64.36
2022-08-05T02:12:10.187Z,64.25
2022-08-05T02:13:15.894Z,64.85
2022-08-05T02:14:08.344Z,64.36
2022-08-05T02:15:07.355Z,64.65
2022-08-05T02:16:08.328Z,64.36
2022-08-05T02:17:08.343Z,64.85
2022-08-05T02:18:33.135Z,65.15
2022-08-05T02:19:08.320Z,65.45
2022-08-05T02:20:07.304Z,65.25
2022-08-05T02:21:14.666Z,65.55
2022-08-05T02:22:08.253Z,65.78
2022-08-05T02:23:08.848Z,65.78
2022-08-05T02:24:07.215Z,65.68
2022-08-05T02:25:07.417Z,65.88
2022-08-05T02:26:07.225Z,65.28
2022-08-05T02:27:10.048Z,65.81
2022-08-05T02:28:08.914Z,66.31
2022-08-05T02:29:07.162Z,66.41
2022-08-05T02:30:08.143Z,66.91
2022-08-05T02:31:07.520Z,66.71
2022-08-05T02:32:07.121Z,67.00
2022-08-05T02:33:07.131Z,67.33
2022-08-05T02:34:07.109Z,67.33
2022-08-05T02:35:13.726Z,67.54
2022-08-05T02:36:09.414Z,67.93
2022-08-05T02:37:07.069Z,68.13
2022-08-05T02:38:09.179Z,67.83
2022-08-05T02:39:08.835Z,68.13
2022-08-05T02:40:07.014Z,68.46
2022-08-05T02:41:17.420Z,68.46
2022-08-05T02:42:08.010Z,68.56
2022-08-05T02:43:07.229Z,68.26
2022-08-05T02:44:12.096Z,68.37
2022-08-05T02:45:08.039Z,68.70
2022-08-05T02:46:06.937Z,69.09
2022-08-05T02:47:07.990Z,68.79
2022-08-05T02:48:12.337Z,68.99
2022-08-05T02:49:11.206Z,69.29
2022-08-05T02:50:06.922Z,69.09
2022-08-05T02:51:06.878Z,69.43
2022-08-05T02:52:06.875Z,69.43
2022-08-05T02:53:06.848Z,69.62
2022-08-05T02:54:07.861Z,69.92
2022-08-05T02:55:10.937Z,70.12
2022-08-05T02:56:07.827Z,70.12
2022-08-05T02:57:10.217Z,70.32
2022-08-05T02:58:09.941Z,70.42
2022-08-05T02:59:07.805Z,70.42
2022-08-05T03:00:06.755Z,70.32
2022-08-05T03:01:06.817Z,70.53
2022-08-05T03:02:06.734Z,70.16
2022-08-05T03:03:10.125Z,70.65
2022-08-05T03:04:13.967Z,70.16
2022-08-05T03:05:07.743Z,70.26
2022-08-05T03:06:56.335Z,70.46
2022-08-05T03:07:07.673Z,70.46
2022-08-05T03:08:08.893Z,70.36
2022-08-05T03:09:06.700Z,70.46
2022-08-05T03:10:06.650Z,70.95
2022-08-05T03:11:56.204Z,70.65
2022-08-05T03:12:07.811Z,70.76
2022-08-05T03:13:51.120Z,70.95
2022-08-05T03:14:33.019Z,70.86
2022-08-05T03:15:32.000Z,71.26
2022-08-05T03:16:32.763Z,71.56
2022-08-05T03:17:31.979Z,71.06
2022-08-05T03:18:32.020Z,71.45
2022-08-05T03:19:34.212Z,71.15
2022-08-05T03:20:31.978Z,71.45
2022-08-05T03:21:41.273Z,71.66
2022-08-05T03:22:32.923Z,71.79
2022-08-05T03:23:31.929Z,71.89
2022-08-05T03:24:31.920Z,72.19
2022-08-05T03:26:05.120Z,71.99
2022-08-05T03:26:32.939Z,71.89
2022-08-05T03:27:57.971Z,71.99
2022-08-05T03:28:32.886Z,72.29
2022-08-05T03:29:44.805Z,72.39
2022-08-05T03:30:34.197Z,72.99
2022-08-05T03:31:55.565Z,72.69
2022-08-05T03:32:32.786Z,72.42
2022-08-05T03:33:32.288Z,72.32
2022-08-05T03:34:32.783Z,72.42
2022-08-05T03:35:33.889Z,72.42
2022-08-05T03:36:32.769Z,72.92
2022-08-05T03:37:31.776Z,72.62
2022-08-05T03:38:37.548Z,72.32
2022-08-05T03:39:35.229Z,72.52
2022-08-05T03:40:32.870Z,72.82
2022-08-05T03:41:33.240Z,72.72
2022-08-05T03:42:33.048Z,72.62
2022-08-05T03:44:09.535Z,72.13
2022-08-05T03:44:32.654Z,72.32
2022-08-05T03:45:31.614Z,73.12
2022-08-05T03:46:32.754Z,72.92
2022-08-05T03:47:35.387Z,72.82
2022-08-05T03:48:35.149Z,72.42
2022-08-05T03:49:51.370Z,72.52
2022-08-05T03:50:32.585Z,72.52
2022-08-05T03:52:38.779Z,72.62
2022-08-05T03:52:48.980Z,73.02
2022-08-05T03:55:00.073Z,73.02
2022-08-05T03:55:51.303Z,72.92
2022-08-05T03:56:09.283Z,73.22
2022-08-05T03:56:35.222Z,73.12
2022-08-05T03:57:41.322Z,73.12
2022-08-05T03:58:32.472Z,73.32
2022-08-05T03:59:46.938Z,73.32
2022-08-05T04:00:32.430Z,73.52
2022-08-05T04:01:32.232Z,73.52
2022-08-05T04:02:38.682Z,73.32
2022-08-05T04:03:32.450Z,73.52
2022-08-05T04:04:31.426Z,73.02
2022-08-05T04:05:33.659Z,73.02
2022-08-05T04:06:31.365Z,73.02
2022-08-05T04:07:33.035Z,73.22
2022-08-05T04:08:36.017Z,73.22
2022-08-05T04:09:32.346Z,73.02
2022-08-05T04:10:37.659Z,72.72
2022-08-05T04:11:47.432Z,72.82
2022-08-05T04:12:32.289Z,72.82
2022-08-05T04:13:51.027Z,72.72
2022-08-05T04:14:32.287Z,72.82
2022-08-05T04:15:33.379Z,72.92
2022-08-05T04:16:32.529Z,72.92
2022-08-05T04:17:55.806Z,73.12
2022-08-05T04:18:34.299Z,72.92
2022-08-05T04:19:31.304Z,72.92
2022-08-05T04:20:31.195Z,73.02
2022-08-05T04:22:08.235Z,73.22
2022-08-05T04:22:32.197Z,73.12
2022-08-05T04:24:05.977Z,73.32
2022-08-05T04:24:32.122Z,73.42
2022-08-05T04:25:57.519Z,73.22
2022-08-05T04:26:32.460Z,73.22
2022-08-05T04:27:41.595Z,73.32
2022-08-05T04:28:32.133Z,73.32
2022-08-05T04:29:31.096Z,73.49
2022-08-05T04:30:31.065Z,73.69
2022-08-05T04:31:38.431Z,73.58
2022-08-05T04:32:33.421Z,73.49
2022-08-05T04:34:17.302Z,73.39
2022-08-05T04:34:34.690Z,73.58
2022-08-05T04:36:10.667Z,73.79
2022-08-05T04:36:46.471Z,73.79
2022-08-05T04:38:02.285Z,73.69
2022-08-05T04:38:39.479Z,73.58
2022-08-05T04:39:32.164Z,73.19
2022-08-05T04:40:30.925Z,73.19
2022-08-05T04:41:36.682Z,73.49
2022-08-05T04:42:32.020Z,73.49
2022-08-05T04:43:30.897Z,73.49
2022-08-05T04:44:30.924Z,73.58
2022-08-05T04:45:47.942Z,73.39
2022-08-05T04:46:31.871Z,73.58
2022-08-05T04:47:30.893Z,73.99
2022-08-05T04:48:31.859Z,73.99
2022-08-05T04:49:38.499Z,73.99
2022-08-05T04:50:34.350Z,74.38
2022-08-05T04:51:31.809Z,74.05
2022-08-05T04:52:34.054Z,74.05
2022-08-05T04:53:33.552Z,74.05
2022-08-05T04:54:30.787Z,73.65
2022-08-05T04:56:14.501Z,73.75
2022-08-05T04:56:34.612Z,73.65
2022-08-05T04:57:37.175Z,73.95
2022-08-05T04:58:31.731Z,73.35
2022-08-05T04:59:38.496Z,73.52
2022-08-05T05:00:31.689Z,73.82
2022-08-05T05:02:05.491Z,73.22
2022-08-05T05:02:37.433Z,73.52
2022-08-05T05:03:41.688Z,73.11
2022-08-05T05:04:31.628Z,73.02
2022-08-05T05:05:30.630Z,73.11
2022-08-05T05:06:39.419Z,73.11
2022-08-05T05:07:32.737Z,72.52
2022-08-05T05:08:30.635Z,71.72
2022-08-05T05:09:31.247Z,72.12
2022-08-05T05:10:30.570Z,72.22
2022-08-05T05:11:42.023Z,71.92
2022-08-05T05:12:31.600Z,71.62
2022-08-05T05:13:32.384Z,71.12
2022-08-05T05:14:32.291Z,71.72
2022-08-05T05:15:56.974Z,71.52
2022-08-05T05:16:31.515Z,71.52
2022-08-05T05:17:56.334Z,71.72
2022-08-05T05:18:33.788Z,71.52
2022-08-05T05:19:36.765Z,72.12
2022-08-05T05:20:31.464Z,71.52
2022-08-05T05:21:30.413Z,71.52
2022-08-05T05:22:30.455Z,72.02
2022-08-05T05:24:02.447Z,72.42
2022-08-05T05:24:56.407Z,72.62
2022-08-05T05:25:33.052Z,71.62
2022-08-05T05:26:33.010Z,71.98
2022-08-05T05:27:44.994Z,72.88
2022-08-05T05:28:31.373Z,72.19
2022-08-05T05:30:04.557Z,72.38
2022-08-05T05:30:33.474Z,72.58
2022-08-05T05:31:35.797Z,72.68
2022-08-05T05:32:30.270Z,72.38
2022-08-05T05:33:30.242Z,72.08
2022-08-05T05:34:31.295Z,71.78
2022-08-05T05:35:34.473Z,71.89
2022-08-05T05:36:31.276Z,71.89
2022-08-05T05:37:59.098Z,72.08
2022-08-05T05:38:31.227Z,72.28
2022-08-05T05:39:34.384Z,72.28
2022-08-05T05:40:30.150Z,71.89
2022-08-05T05:41:40.722Z,72.05
2022-08-05T05:42:31.146Z,72.35
2022-08-05T05:43:57.216Z,71.95
2022-08-05T05:44:37.612Z,71.95
2022-08-05T05:45:31.088Z,71.95
2022-08-05T05:46:30.079Z,71.39
2022-08-05T05:48:06.795Z,71.19
2022-08-05T05:48:31.070Z,71.25
2022-08-05T05:49:30.038Z,71.05
2022-08-05T05:50:30.047Z,71.09
2022-08-05T05:51:30.051Z,70.75
2022-08-05T05:52:34.614Z,70.36
2022-08-05T05:53:30.978Z,70.65
2022-08-05T05:54:50.506Z,70.86
2022-08-05T05:55:51.656Z,70.45
2022-08-05T05:56:33.234Z,70.16
2022-08-05T05:57:42.827Z,70.45
2022-08-05T05:58:32.305Z,70.45
2022-08-05T05:59:29.975Z,70.16
2022-08-05T06:00:31.695Z,70.36
2022-08-05T06:01:36.894Z,70.06
2022-08-05T06:02:37.433Z,70.26
2022-08-05T06:03:54.048Z,70.16
2022-08-05T06:04:30.921Z,70.26
2022-08-05T06:05:29.878Z,70.36
2022-08-05T06:06:31.259Z,69.66
2022-08-05T06:07:42.041Z,69.96
2022-08-05T06:08:32.341Z,71.05
2022-08-05T06:09:51.335Z,71.42
2022-08-05T06:10:34.512Z,70.82
2022-08-05T06:11:30.757Z,70.62
2022-08-05T06:12:29.769Z,71.02
2022-08-05T06:13:29.784Z,70.92
2022-08-05T06:14:30.753Z,70.82
2022-08-05T06:16:28.516Z,71.22
2022-08-05T06:16:32.878Z,71.78
2022-08-05T06:17:31.104Z,71.48
2022-08-05T06:18:30.827Z,70.79
2022-08-05T06:19:34.494Z,69.99
2022-08-05T06:20:30.645Z,70.89
2022-08-05T06:21:36.091Z,71.25
2022-08-05T06:22:30.642Z,70.85
2022-08-05T06:23:43.562Z,71.95
2022-08-05T06:24:30.623Z,69.16
2022-08-05T06:26:12.160Z,68.76
2022-08-05T06:26:33.818Z,69.46
2022-08-05T06:28:12.353Z,68.27
2022-08-05T06:28:30.571Z,68.16
2022-08-05T06:29:48.134Z,68.86
2022-08-05T06:30:30.596Z,68.56
2022-08-05T06:31:30.618Z,69.36
2022-08-05T06:32:29.525Z,68.46
2022-08-05T06:33:33.351Z,67.47
2022-08-05T06:34:30.493Z,67.97
2022-08-05T06:36:03.979Z,68.16
2022-08-05T06:36:53.538Z,67.27
2022-08-05T06:37:56.894Z,67.97
2022-08-05T06:38:36.223Z,66.71
2022-08-05T06:39:30.451Z,66.91
2022-08-05T06:40:32.290Z,67.50
2022-08-05T06:41:29.390Z,68.00
2022-08-05T06:42:30.388Z,68.00
2022-08-05T06:43:57.506Z,68.40
2022-08-05T06:44:30.361Z,68.99
2022-08-05T06:46:03.346Z,68.30
2022-08-05T06:46:30.696Z,68.20
2022-08-05T06:47:30.255Z,68.50
2022-08-05T06:48:52.857Z,67.20
2022-08-05T06:50:00.522Z,67.10
2022-08-05T06:50:30.286Z,66.91
2022-08-05T06:51:30.737Z,67.20
2022-08-05T06:52:38.028Z,67.20
2022-08-05T06:53:30.245Z,67.20
2022-08-05T06:54:30.287Z,67.70
2022-08-05T06:55:29.205Z,68.50
2022-08-05T06:56:30.197Z,68.99
2022-08-05T06:58:03.108Z,68.00
2022-08-05T06:58:36.315Z,67.50
2022-08-05T06:59:30.155Z,67.50
2022-08-05T07:00:30.177Z,67.40
2022-08-05T07:01:32.279Z,67.70
2022-08-05T07:02:29.115Z,67.60
2022-08-05T07:03:32.955Z,68.00
2022-08-05T07:04:29.087Z,67.60
2022-08-05T07:05:37.623Z,67.90
2022-08-05T07:06:30.084Z,68.90
2022-08-05T07:07:43.018Z,69.20
2022-08-05T07:08:30.068Z,69.29
2022-08-05T07:09:32.247Z,69.69
2022-08-05T07:10:32.406Z,69.29
2022-08-05T07:11:29.012Z,69.39
2022-08-05T07:12:29.013Z,70.19
2022-08-05T07:13:57.534Z,69.20
2022-08-05T07:14:30.701Z,69.89
2022-08-05T07:15:34.368Z,69.89
2022-08-05T07:17:58.981Z,70.49
2022-08-05T07:17:59.332Z,70.79
2022-08-05T07:18:30.790Z,69.99
2022-08-05T07:20:16.898Z,69.09
2022-08-05T07:20:33.295Z,69.20
2022-08-05T07:21:28.910Z,68.99
2022-08-05T07:22:30.449Z,69.20
2022-08-05T07:23:29.735Z,69.29
2022-08-05T07:24:28.849Z,69.49
2022-08-05T07:25:56.003Z,68.56
2022-08-05T07:26:29.800Z,68.27
2022-08-05T07:27:58.853Z,67.17
2022-08-05T07:28:29.780Z,68.37
2022-08-05T07:30:24.543Z,67.97
2022-08-05T07:30:32.407Z,67.57
2022-08-05T07:31:41.093Z,67.77
2022-08-05T07:32:29.744Z,66.87
2022-08-05T07:33:37.199Z,67.17
2022-08-05T07:34:29.751Z,68.46
2022-08-05T07:36:02.111Z,68.66
2022-08-05T07:36:29.689Z,66.77
2022-08-05T07:37:29.211Z,66.35
2022-08-05T07:38:33.509Z,65.84
2022-08-05T07:40:26.063Z,65.94
2022-08-05T07:40:32.093Z,65.94
2022-08-05T07:42:07.826Z,65.45
2022-08-05T07:42:31.725Z,65.15
2022-08-05T07:43:28.630Z,65.75
2022-08-05T07:44:28.856Z,66.05
2022-08-05T07:45:56.639Z,66.14
2022-08-05T07:46:29.587Z,66.14
2022-08-05T07:47:42.350Z,65.25
2022-08-05T07:49:01.835Z,65.55
2022-08-05T07:49:29.531Z,64.65
2022-08-05T07:50:29.044Z,65.15
2022-08-05T07:51:37.079Z,66.44
2022-08-05T07:52:29.680Z,65.55
2022-08-05T07:53:36.824Z,64.32
2022-08-05T07:54:30.749Z,65.12
2022-08-05T07:55:44.238Z,65.22
2022-08-05T07:57:00.147Z,66.21
2022-08-05T07:57:52.234Z,65.61
2022-08-05T07:58:57.625Z,65.22
2022-08-05T07:59:38.189Z,65.22
2022-08-05T08:00:29.381Z,65.31
2022-08-05T08:01:30.002Z,65.22
2022-08-05T08:02:31.323Z,65.31
2022-08-05T08:03:44.488Z,66.51
2022-08-05T08:04:37.476Z,63.63
2022-08-05T08:05:29.331Z,64.19
2022-08-05T08:06:28.383Z,64.49
2022-08-05T08:07:28.984Z,64.00
2022-08-05T08:08:29.300Z,64.19
2022-08-05T08:09:29.193Z,65.58
2022-08-05T08:10:28.252Z,64.29
2022-08-05T08:11:49.491Z,63.70
2022-08-05T08:12:48.899Z,63.20
2022-08-05T08:13:29.591Z,64.00
2022-08-05T08:14:29.203Z,63.86
2022-08-05T08:16:33.657Z,63.07
2022-08-05T08:16:50.258Z,63.76
2022-08-05T08:17:29.175Z,62.87
2022-08-05T08:18:28.192Z,62.87
2022-08-05T08:20:10.232Z,63.07
2022-08-05T08:20:45.444Z,63.76
2022-08-05T08:21:29.124Z,62.67
2022-08-05T08:22:28.123Z,62.27
2022-08-05T08:24:02.440Z,62.74
2022-08-05T08:24:51.022Z,60.66
2022-08-05T08:25:59.863Z,60.85
2022-08-05T08:26:29.643Z,62.45
2022-08-05T08:27:35.807Z,61.75
2022-08-05T08:28:36.393Z,61.75
2022-08-05T08:30:03.367Z,61.25
2022-08-05T08:30:37.642Z,61.65
2022-08-05T08:31:28.977Z,61.65
2022-08-05T08:32:28.333Z,61.35
2022-08-05T08:33:27.964Z,61.35
2022-08-05T08:34:30.448Z,60.85
2022-08-05T08:35:27.958Z,60.23
2022-08-05T08:36:38.197Z,60.13
2022-08-05T08:37:29.050Z,59.93
2022-08-05T08:38:35.498Z,58.94
2022-08-05T08:39:28.932Z,59.44
2022-08-05T08:40:27.857Z,59.31
2022-08-05T08:41:51.066Z,59.01
2022-08-05T08:42:38.303Z,58.12
2022-08-05T08:45:20.003Z,58.88
2022-08-05T08:45:20.237Z,57.82
2022-08-05T08:45:29.682Z,58.59
2022-08-05T08:46:27.798Z,58.88
2022-08-05T08:48:06.618Z,58.29
2022-08-05T08:49:03.375Z,57.69
2022-08-05T08:50:22.231Z,57.00
2022-08-05T08:50:32.750Z,57.79
2022-08-05T08:52:04.149Z,57.89
2022-08-05T08:52:29.033Z,57.50
2022-08-05T08:53:27.716Z,58.26
2022-08-05T08:54:27.740Z,58.06
2022-08-05T08:56:02.137Z,57.27
2022-08-05T08:56:28.665Z,57.97
2022-08-05T08:57:42.007Z,58.56
2022-08-05T08:58:43.664Z,59.42
2022-08-05T08:59:33.382Z,58.92
2022-08-05T09:00:28.651Z,57.04
2022-08-05T09:01:27.681Z,55.36
2022-08-05T09:02:27.653Z,56.15
2022-08-05T09:03:27.585Z,55.04
2022-08-05T09:04:30.410Z,54.84
2022-08-05T09:05:38.664Z,55.13
2022-08-05T09:06:30.272Z,52.93
2022-08-05T09:07:29.096Z,53.82
2022-08-05T09:08:30.235Z,54.71
2022-08-05T09:09:34.826Z,54.22
2022-08-05T09:10:29.742Z,53.13
2022-08-05T09:11:52.631Z,51.92
2022-08-05T09:12:28.501Z,52.51
2022-08-05T09:13:31.819Z,52.31
2022-08-05T09:14:56.898Z,51.82
2022-08-05T09:15:28.421Z,51.72
2022-08-05T09:16:27.450Z,51.13
2022-08-05T09:17:43.016Z,51.23
2022-08-05T09:18:28.391Z,51.42
2022-08-05T09:19:27.675Z,51.82
2022-08-05T09:20:37.605Z,51.82
2022-08-05T09:22:23.367Z,50.53
2022-08-05T09:22:31.986Z,51.72
2022-08-05T09:23:28.897Z,53.80
2022-08-05T09:24:28.312Z,52.81
2022-08-05T09:26:02.927Z,52.51
2022-08-05T09:26:30.192Z,53.80
2022-08-05T09:28:04.480Z,54.79
2022-08-05T09:28:32.296Z,57.65
2022-08-05T09:29:31.026Z,56.46
2022-08-05T09:30:27.261Z,54.39
2022-08-05T09:32:40.886Z,55.60
2022-08-05T09:32:41.177Z,56.49
2022-08-05T09:33:34.908Z,54.91
2022-08-05T09:34:28.264Z,55.21
2022-08-05T09:35:27.674Z,53.92
2022-08-05T09:36:27.810Z,56.49
2022-08-05T09:38:12.731Z,55.01
2022-08-05T09:38:29.577Z,56.69
2022-08-05T09:39:41.362Z,53.42
2022-08-05T09:40:28.203Z,52.73
2022-08-05T09:41:27.135Z,53.53
2022-08-05T09:42:28.617Z,55.97
2022-08-05T09:43:27.087Z,54.98
2022-08-05T09:44:28.077Z,54.69
2022-08-05T09:46:07.278Z,55.28
2022-08-05T09:46:28.537Z,53.11
2022-08-05T09:47:29.682Z,54.59
2022-08-05T09:48:28.493Z,53.50
2022-08-05T09:49:54.924Z,54.59
2022-08-05T09:50:37.520Z,55.47
2022-08-05T09:51:28.008Z,53.60
2022-08-05T09:52:27.061Z,53.70
2022-08-05T09:53:54.261Z,54.49
2022-08-05T09:54:29.311Z,53.60
2022-08-05T09:55:56.478Z,52.91
2022-08-05T09:56:27.953Z,55.08
2022-08-05T09:57:26.914Z,54.10
2022-08-05T09:58:26.903Z,53.20
2022-08-05T09:59:27.752Z,53.89
2022-08-05T10:00:26.862Z,53.89
2022-08-05T10:01:31.774Z,53.99
2022-08-05T10:02:27.896Z,53.70
2022-08-05T10:03:56.564Z,53.11
2022-08-05T10:04:29.351Z,53.11
2022-08-05T10:05:26.968Z,54.69
2022-08-05T10:06:26.794Z,55.08
2022-08-05T10:07:50.397Z,53.89
2022-08-05T10:08:35.823Z,52.61
2022-08-05T10:09:29.661Z,52.91
2022-08-05T10:10:28.137Z,52.51
2022-08-05T10:11:31.283Z,53.70
2022-08-05T10:12:33.676Z,50.61
2022-08-05T10:13:27.708Z,51.30
2022-08-05T10:14:27.690Z,50.51
2022-08-05T10:15:26.681Z,50.90
2022-08-05T10:16:26.685Z,50.01
2022-08-05T10:17:39.781Z,49.89
2022-08-05T10:18:27.626Z,50.38
2022-08-05T10:19:31.960Z,50.38
2022-08-05T10:20:28.484Z,50.48
2022-08-05T10:21:26.599Z,50.19
2022-08-05T10:22:30.362Z,50.48
2022-08-05T10:23:56.411Z,49.10
2022-08-05T10:24:28.613Z,50.66
2022-08-05T10:25:26.569Z,48.68
2022-08-05T10:26:32.652Z,49.67
2022-08-05T10:28:13.937Z,47.99
2022-08-05T10:28:30.312Z,46.81
2022-08-05T10:30:06.594Z,47.40
2022-08-05T10:32:46.947Z,48.49
2022-08-05T10:32:54.909Z,47.89
2022-08-05T10:33:02.483Z,48.98
2022-08-05T10:33:28.827Z,48.09
2022-08-05T10:34:31.012Z,49.18
2022-08-05T10:35:40.345Z,48.78
2022-08-05T10:36:27.438Z,48.98
2022-08-05T10:37:26.608Z,48.28
2022-08-05T10:38:27.493Z,48.58
2022-08-05T10:40:04.162Z,48.58
2022-08-05T10:40:28.047Z,48.96
2022-08-05T10:41:26.339Z,48.36
2022-08-05T10:42:33.636Z,48.46
2022-08-05T10:43:35.530Z,48.36
2022-08-05T10:44:27.315Z,48.36
2022-08-05T10:45:38.397Z,48.27
2022-08-05T10:46:27.312Z,48.46
2022-08-05T10:47:31.239Z,49.15
2022-08-05T10:48:29.621Z,49.84
2022-08-05T10:49:33.291Z,50.04
2022-08-05T10:50:36.400Z,50.54
2022-08-05T10:51:29.014Z,50.63
2022-08-05T10:52:26.355Z,49.33
2022-08-05T10:53:26.194Z,49.52
2022-08-05T10:54:29.905Z,49.33
2022-08-05T10:55:27.207Z,50.12
2022-08-05T10:56:26.408Z,48.93
2022-08-05T10:57:26.152Z,48.83
2022-08-05T10:58:36.190Z,51.00
2022-08-05T11:00:02.606Z,49.52
2022-08-05T11:00:27.093Z,49.52
2022-08-05T11:01:28.293Z,48.24
2022-08-05T11:02:34.578Z,48.54
2022-08-05T11:03:27.316Z,49.03
2022-08-05T11:04:26.433Z,48.14
2022-08-05T11:05:29.120Z,48.34
2022-08-05T11:06:31.033Z,49.20
2022-08-05T11:07:33.097Z,50.59
2022-08-05T11:08:38.031Z,49.69
2022-08-05T11:09:45.478Z,48.22
2022-08-05T11:10:27.398Z,49.69
2022-08-05T11:11:33.199Z,48.02
2022-08-05T11:12:27.179Z,47.60
2022-08-05T11:13:25.947Z,46.62
2022-08-05T11:14:49.497Z,46.84
2022-08-05T11:16:01.031Z,46.54
2022-08-05T11:16:33.966Z,46.52
2022-08-05T11:17:57.778Z,46.22
2022-08-05T11:18:26.893Z,46.42
2022-08-05T11:20:10.821Z,47.21
2022-08-05T11:20:26.834Z,46.42
2022-08-05T11:21:25.837Z,46.62
2022-08-05T11:22:25.829Z,46.22
2022-08-05T11:23:25.818Z,45.34
2022-08-05T11:24:30.383Z,45.43
2022-08-05T11:26:06.004Z,46.12
2022-08-05T11:30:03.972Z,48.10
2022-08-05T11:30:42.961Z,46.81
2022-08-05T11:31:58.123Z,45.83
2022-08-05T11:32:43.966Z,46.40
2022-08-05T11:33:46.449Z,46.40
2022-08-05T11:34:51.665Z,45.34
2022-08-05T11:36:02.720Z,47.80
2022-08-05T11:36:43.879Z,46.81
2022-08-05T11:38:28.578Z,45.73
2022-08-05T11:38:45.699Z,46.52
2022-08-05T11:39:47.999Z,45.53
2022-08-05T11:40:42.833Z,47.01
2022-08-05T11:42:01.159Z,48.10
2022-08-05T11:42:43.831Z,46.42
2022-08-05T11:44:06.729Z,46.22
2022-08-05T11:44:53.649Z,46.52
2022-08-05T11:46:27.214Z,47.38
2022-08-05T11:47:09.937Z,46.30
2022-08-05T11:47:49.882Z,46.00
2022-08-05T11:48:43.765Z,46.20
2022-08-05T11:49:42.967Z,45.34
2022-08-05T11:50:42.683Z,45.93
2022-08-05T11:51:44.040Z,46.32
2022-08-05T11:52:43.864Z,46.91
2022-08-05T11:53:42.707Z,47.09
2022-08-05T11:54:43.576Z,46.59
2022-08-05T11:55:43.649Z,45.61
2022-08-05T11:56:42.616Z,45.31
2022-08-05T11:58:09.841Z,45.61
2022-08-05T11:58:43.619Z,45.51
2022-08-05T11:59:49.699Z,46.79
2022-08-05T12:00:44.362Z,48.47
2022-08-05T12:01:42.559Z,46.30
2022-08-05T12:02:42.616Z,46.40
2022-08-05T12:03:42.608Z,46.89
2022-08-05T12:04:43.559Z,46.67
2022-08-05T12:05:43.738Z,44.70
2022-08-05T12:06:48.753Z,45.29
2022-08-05T12:08:03.520Z,46.18
2022-08-05T12:08:49.809Z,46.37
2022-08-05T12:09:52.817Z,46.18
2022-08-05T12:10:46.017Z,46.97
2022-08-05T12:11:42.436Z,49.90
2022-08-05T12:12:58.207Z,46.65
2022-08-05T12:13:48.490Z,46.25
2022-08-05T12:14:43.396Z,47.44
2022-08-05T12:15:42.404Z,46.15
2022-08-05T12:16:45.192Z,49.11
2022-08-05T12:18:04.057Z,44.29
2022-08-05T12:18:52.201Z,44.88
2022-08-05T12:20:16.828Z,44.38
2022-08-05T12:20:43.326Z,44.29
2022-08-05T12:21:42.317Z,46.13
2022-08-05T12:22:42.332Z,46.25
2022-08-05T12:23:42.873Z,47.41
2022-08-05T12:24:43.734Z,47.51
2022-08-05T12:25:43.315Z,44.26
2022-08-05T12:26:44.095Z,46.62
2022-08-05T12:27:53.329Z,45.94
2022-08-05T12:28:43.240Z,44.76
2022-08-05T12:29:42.221Z,43.57
2022-08-05T12:30:45.967Z,44.36
2022-08-05T12:31:48.286Z,44.17
2022-08-05T12:32:43.192Z,44.85
2022-08-05T12:33:43.272Z,44.85
2022-08-05T12:34:42.155Z,45.45
2022-08-05T12:35:43.061Z,46.80
2022-08-05T12:36:42.279Z,46.70
2022-08-05T12:37:42.121Z,44.54
2022-08-05T12:38:42.186Z,44.44
2022-08-05T12:39:42.208Z,43.85
2022-08-05T12:40:44.163Z,43.65
2022-08-05T12:41:43.895Z,43.55
2022-08-05T12:42:42.096Z,44.05
2022-08-05T12:43:42.050Z,43.43
2022-08-05T12:44:42.040Z,44.12
2022-08-05T12:45:48.420Z,43.24
2022-08-05T12:46:45.665Z,43.41
2022-08-05T12:47:43.460Z,47.25
2022-08-05T12:48:43.110Z,44.49
2022-08-05T12:50:04.530Z,44.08
2022-08-05T12:50:42.958Z,43.00
2022-08-05T12:52:13.789Z,42.90
2022-08-05T12:52:42.996Z,43.00
2022-08-05T12:53:41.961Z,43.19
2022-08-05T12:54:41.917Z,44.65
2022-08-05T12:55:41.887Z,45.43
2022-08-05T12:56:41.897Z,44.06
2022-08-05T12:58:39.045Z,43.57